createdAt,value
2023-04-18T00:02:44.168Z,100809.16
2023-04-18T00:07:46.469Z,100811.56
2023-04-18T00:12:48.060Z,100812.97
2023-04-18T00:17:49.686Z,100812.63
2023-04-18T00:22:53.115Z,100811.56
2023-04-18T00:27:54.579Z,100808.84
2023-04-18T00:32:56.025Z,100807.88
2023-04-18T00:37:57.970Z,100809.50
2023-04-18T00:42:59.932Z,100810.16
2023-04-18T00:48:01.854Z,100806.44
2023-04-18T00:53:04.016Z,100800.53
2023-04-18T00:58:06.264Z,100798.25
2023-04-18T01:03:08.546Z,100798.56
2023-04-18T01:08:11.109Z,100792.84
2023-04-18T01:13:16.954Z,100801.59
2023-04-18T01:18:19.164Z,100794.69
2023-04-18T01:23:21.279Z,100795.94
2023-04-18T01:28:22.831Z,100799.50
2023-04-18T01:33:24.359Z,100794.63
2023-04-18T01:38:25.930Z,100797.03
2023-04-18T01:43:27.442Z,100792.94
2023-04-18T01:48:28.958Z,100796.38
2023-04-18T01:53:30.866Z,100799.81
2023-04-18T01:58:32.282Z,100795.28
2023-04-18T02:03:33.967Z,100790.69
2023-04-18T02:08:35.980Z,100790.81
2023-04-18T02:13:37.642Z,100790.50
2023-04-18T02:18:39.350Z,100800.00
2023-04-18T02:23:40.765Z,100788.97
2023-04-18T02:28:42.202Z,100793.41
2023-04-18T02:33:44.594Z,100790.25
2023-04-18T02:38:46.012Z,100804.13
2023-04-18T02:43:47.451Z,100788.63
2023-04-18T02:48:48.915Z,100791.97
2023-04-18T02:53:54.928Z,100797.69
2023-04-18T02:58:56.340Z,100794.63
2023-04-18T03:03:58.391Z,100798.72
2023-04-18T03:08:59.836Z,100801.50
2023-04-18T03:14:01.286Z,100799.38
2023-04-18T03:19:02.727Z,100794.81
2023-04-18T03:24:04.390Z,100786.19
2023-04-18T03:29:06.419Z,100797.66
2023-04-18T03:34:07.834Z,100794.13
2023-04-18T03:39:09.320Z,100796.31
2023-04-18T03:44:11.209Z,100797.84
2023-04-18T03:49:12.851Z,100801.50
2023-04-18T03:54:15.388Z,100795.47
2023-04-18T03:59:17.137Z,100796.09
2023-04-18T04:04:19.294Z,100793.28
2023-04-18T04:09:20.832Z,100796.97
2023-04-18T04:14:22.898Z,100803.00
2023-04-18T04:19:24.442Z,100816.88
2023-04-18T04:24:25.871Z,100814.47
2023-04-18T04:29:29.068Z,100816.09
2023-04-18T04:34:31.041Z,100813.19
2023-04-18T04:39:32.481Z,100813.56
2023-04-18T04:44:35.589Z,100822.41
2023-04-18T04:49:37.114Z,100835.84
2023-04-18T04:54:38.761Z,100831.75
2023-04-18T04:59:40.337Z,100832.72
2023-04-18T05:04:41.894Z,100831.72
2023-04-18T05:09:43.516Z,100839.03
2023-04-18T05:14:44.969Z,100834.25
2023-04-18T05:19:46.412Z,100844.28
2023-04-18T05:24:47.864Z,100846.59
2023-04-18T05:29:50.360Z,100846.13
2023-04-18T05:34:51.806Z,100842.25
2023-04-18T05:39:53.253Z,100848.75
2023-04-18T05:44:54.700Z,100853.19
2023-04-18T05:49:56.368Z,100858.44
2023-04-18T05:54:57.790Z,100854.16
2023-04-18T05:59:59.217Z,100853.19
2023-04-18T06:05:01.517Z,100870.41
2023-04-18T06:10:03.643Z,100858.59
2023-04-18T06:15:05.841Z,100862.72
2023-04-18T06:20:07.750Z,100872.06
2023-04-18T06:25:10.065Z,100866.47
2023-04-18T06:30:11.986Z,100869.34
2023-04-18T06:35:13.471Z,100877.56
2023-04-18T06:40:14.890Z,100883.16
2023-04-18T06:45:16.360Z,100887.66
2023-04-18T06:50:17.804Z,100888.41
2023-04-18T06:55:19.390Z,100893.00
2023-04-18T07:00:21.162Z,100903.41
2023-04-18T07:05:22.695Z,100901.13
2023-04-18T07:10:24.326Z,100902.84
2023-04-18T07:15:25.841Z,100904.13
2023-04-18T07:20:27.274Z,100907.09
2023-04-18T07:25:28.757Z,100917.03
2023-04-18T07:30:30.413Z,100918.38
2023-04-18T07:35:31.957Z,100913.75
2023-04-18T07:40:33.462Z,100925.28
2023-04-18T07:45:38.245Z,100925.66
2023-04-18T07:50:39.768Z,100940.81
2023-04-18T07:55:41.258Z,100932.53
2023-04-18T08:00:44.670Z,100930.84
2023-04-18T08:05:46.159Z,100945.34
2023-04-18T08:10:47.641Z,100945.56
2023-04-18T08:15:49.125Z,100945.53
2023-04-18T08:20:50.631Z,100950.72
2023-04-18T08:25:52.433Z,100954.16
2023-04-18T08:30:55.215Z,100956.59
2023-04-18T08:35:56.686Z,100960.91
2023-04-18T08:40:58.172Z,100971.00
2023-04-18T08:46:00.520Z,100964.09
2023-04-18T08:51:02.331Z,100973.84
2023-04-18T08:56:05.417Z,100980.84
2023-04-18T09:01:07.337Z,100974.97
2023-04-18T09:06:14.334Z,100968.03
2023-04-18T09:11:26.157Z,100971.78
2023-04-18T09:16:28.114Z,100969.00
2023-04-18T09:21:29.744Z,100966.38
2023-04-18T09:26:35.851Z,100972.34
2023-04-18T09:31:53.576Z,100963.19
2023-04-18T09:37:08.956Z,100963.94
2023-04-18T09:42:10.890Z,100964.72
2023-04-18T09:47:12.379Z,100963.84
2023-04-18T09:52:13.970Z,100974.44
2023-04-18T09:57:17.243Z,100977.03
2023-04-18T10:02:23.069Z,100966.53
2023-04-18T10:07:25.948Z,100969.91
2023-04-18T10:12:27.554Z,100970.13
2023-04-18T10:17:29.769Z,100968.81
2023-04-18T10:22:31.780Z,100975.09
2023-04-18T10:27:48.334Z,100957.13
2023-04-18T10:32:50.157Z,100962.09
2023-04-18T10:37:52.126Z,100965.22
2023-04-18T10:42:53.941Z,100954.38
2023-04-18T10:48:30.257Z,100947.09
2023-04-18T10:53:31.721Z,100942.75
2023-04-18T10:58:34.378Z,100937.34
2023-04-18T11:03:36.007Z,100934.19
2023-04-18T11:08:37.525Z,100932.75
2023-04-18T11:13:57.508Z,100930.75
2023-04-18T11:18:59.511Z,100933.47
2023-04-18T11:24:00.975Z,100938.66
2023-04-18T11:29:03.399Z,100928.28
2023-04-18T11:34:04.828Z,100940.88
2023-04-18T11:39:06.318Z,100948.34
2023-04-18T11:44:07.892Z,100934.88
2023-04-18T11:49:24.604Z,100939.28
2023-04-18T11:54:39.851Z,100934.16
2023-04-18T11:59:48.253Z,100935.47
2023-04-18T12:05:00.419Z,100941.44
2023-04-18T12:10:04.225Z,100932.69
2023-04-18T12:15:08.818Z,100936.38
2023-04-18T12:20:11.426Z,100930.25
2023-04-18T12:25:19.893Z,100924.72
2023-04-18T12:30:29.722Z,100923.63
2023-04-18T12:35:32.328Z,100929.44
2023-04-18T12:40:33.865Z,100935.69
2023-04-18T12:45:35.721Z,100938.66
2023-04-18T12:50:37.216Z,100926.19
2023-04-18T12:55:38.716Z,100930.75
2023-04-18T13:00:40.669Z,100926.84
2023-04-18T13:05:42.192Z,100913.47
2023-04-18T13:10:43.782Z,100911.31
2023-04-18T13:15:45.508Z,100909.44
2023-04-18T13:20:47.165Z,100910.63
2023-04-18T13:25:48.666Z,100910.13
2023-04-18T13:30:50.200Z,100910.28
2023-04-18T13:35:51.651Z,100912.91
2023-04-18T13:41:04.434Z,100907.84
2023-04-18T13:46:10.855Z,100919.78
2023-04-18T13:51:12.341Z,100925.56
2023-04-18T13:56:13.753Z,100912.63
2023-04-18T14:01:16.600Z,100912.94
2023-04-18T14:06:18.086Z,100914.72
2023-04-18T14:11:20.160Z,100915.47
2023-04-18T14:21:40.744Z,100912.69
2023-04-18T14:26:42.245Z,100912.34
2023-04-18T14:31:43.773Z,100914.78
2023-04-18T14:36:45.296Z,100914.22
2023-04-18T14:41:46.993Z,100912.75
2023-04-18T14:46:48.475Z,100920.75
2023-04-18T14:51:50.102Z,100903.78
2023-04-18T14:56:51.600Z,100898.97
2023-04-18T15:01:53.198Z,100899.47
2023-04-18T15:06:54.644Z,100901.84
2023-04-18T15:11:56.114Z,100898.31
2023-04-18T15:16:57.815Z,100895.28
2023-04-18T15:21:59.331Z,100896.25
2023-04-18T15:27:01.427Z,100893.47
2023-04-18T15:32:02.865Z,100899.06
2023-04-18T15:37:04.558Z,100897.19
2023-04-18T15:42:06.162Z,100898.56
2023-04-18T15:47:07.731Z,100899.94
2023-04-18T15:52:09.177Z,100895.09
2023-04-18T15:57:12.140Z,100902.16
2023-04-18T16:02:13.597Z,100900.03
2023-04-18T16:07:15.997Z,100896.38
2023-04-18T16:12:17.409Z,100899.50
2023-04-18T16:17:18.821Z,100903.09
2023-04-18T16:22:20.328Z,100903.34
2023-04-18T16:27:21.939Z,100901.16
2023-04-18T16:32:23.388Z,100892.75
2023-04-18T16:37:24.949Z,100899.03
2023-04-18T16:42:26.358Z,100893.38
2023-04-18T16:47:28.635Z,100890.53
2023-04-18T16:52:30.993Z,100900.53
2023-04-18T16:57:32.590Z,100901.16
2023-04-18T17:02:34.297Z,100904.47
2023-04-18T17:07:35.941Z,100902.47
2023-04-18T17:12:37.631Z,100897.28
2023-04-18T17:17:39.144Z,100898.34
2023-04-18T17:22:41.082Z,100902.75
2023-04-18T17:27:43.126Z,100904.38
2023-04-18T17:32:46.054Z,100906.22
2023-04-18T17:37:49.379Z,100900.53
2023-04-18T17:42:50.842Z,100912.25
2023-04-18T17:47:52.381Z,100908.06
2023-04-18T17:52:54.165Z,100908.06
2023-04-18T17:57:55.848Z,100898.47
2023-04-18T18:02:57.380Z,100915.72
2023-04-18T18:08:00.174Z,100893.25
2023-04-18T18:13:02.184Z,100911.13
2023-04-18T18:18:03.782Z,100914.72
2023-04-18T18:23:06.806Z,100911.03
2023-04-18T18:28:08.285Z,100918.19
2023-04-18T18:33:09.877Z,100903.97
2023-04-18T18:38:11.407Z,100907.81
2023-04-18T18:43:13.171Z,100911.75
2023-04-18T18:48:15.368Z,100915.19
2023-04-18T18:53:17.986Z,100901.41
2023-04-18T18:58:19.415Z,100910.44
2023-04-18T19:03:21.609Z,100909.28
2023-04-18T19:08:23.190Z,100907.06
2023-04-18T19:13:25.098Z,100908.91
2023-04-18T19:18:26.602Z,100904.50
2023-04-18T19:23:28.348Z,100900.16
2023-04-18T19:28:29.810Z,100901.41
2023-04-18T19:33:31.266Z,100901.63
2023-04-18T19:38:33.961Z,100896.84
2023-04-18T19:43:35.519Z,100897.44
2023-04-18T19:48:36.960Z,100890.28
2023-04-18T19:53:38.573Z,100892.66
2023-04-18T19:58:51.028Z,100881.03
2023-04-18T20:03:54.019Z,100889.06
2023-04-18T20:08:55.754Z,100886.34
2023-04-18T20:13:57.225Z,100878.91
2023-04-18T20:18:58.758Z,100871.69
2023-04-18T20:24:00.241Z,100868.06
2023-04-18T20:29:03.618Z,100864.16
2023-04-18T20:34:05.040Z,100866.13
2023-04-18T20:39:06.486Z,100874.25
2023-04-18T20:44:10.050Z,100860.94
2023-04-18T20:49:11.611Z,100872.25
2023-04-18T20:54:14.364Z,100861.41
2023-04-18T20:59:16.070Z,100851.69
2023-04-18T21:04:17.969Z,100854.53
2023-04-18T21:09:19.580Z,100849.81
2023-04-18T21:14:21.056Z,100854.75
2023-04-18T21:19:22.523Z,100846.13
2023-04-18T21:24:24.010Z,100841.56
2023-04-18T21:29:25.551Z,100840.22
2023-04-18T21:34:27.251Z,100840.47
2023-04-18T21:39:28.725Z,100829.59
2023-04-18T21:44:30.183Z,100832.75
2023-04-18T21:49:31.619Z,100828.78
2023-04-18T21:54:33.107Z,100821.53
2023-04-18T21:59:34.583Z,100820.56
2023-04-18T22:04:38.585Z,100817.34
2023-04-18T22:09:39.998Z,100812.78
2023-04-18T22:14:44.929Z,100805.34
2023-04-18T22:19:48.027Z,100796.97
2023-04-18T22:24:49.440Z,100789.56
2023-04-18T22:29:51.049Z,100790.06
2023-04-18T22:34:52.469Z,100782.69
2023-04-18T22:39:53.907Z,100786.38
2023-04-18T22:44:55.401Z,100776.50
2023-04-18T22:49:56.858Z,100770.72
2023-04-18T22:54:58.263Z,100766.75
2023-04-18T22:59:59.674Z,100762.88
2023-04-18T23:05:02.544Z,100764.94
2023-04-18T23:10:06.957Z,100753.50
2023-04-18T23:15:08.861Z,100750.03
2023-04-18T23:20:11.282Z,100740.13
2023-04-18T23:25:12.811Z,100742.75
2023-04-18T23:30:14.439Z,100725.53
2023-04-18T23:35:15.959Z,100725.22
2023-04-18T23:40:17.431Z,100715.31
2023-04-18T23:45:18.990Z,100708.81
2023-04-18T23:50:20.752Z,100703.72
2023-04-18T23:55:22.214Z,100698.47
